Time;durP1;ratioP1;P1;durP2;ratioP2;P2;SDS_P1;SDS_P2;PMS_P1;PMS_P2;Temp;Humidity;BMP_temperature;BMP_pressure;BME280_temperature;BME280_humidity;BME280_pressure;Samples;Min_cycle;Max_cycle;Signal;HPM_P1;HPM_P2
2022/04/14 00:01:03;;;;;;;15.57;7.68;;;;;;;;;;4974914;28;20030;-69
2022/04/14 00:03:28;;;;;;;10.50;7.93;;;;;;;;;;4974355;28;20019;-68
2022/04/14 00:05:54;;;;;;;12.48;7.22;;;;;;;;;;4974666;28;20030;-69
2022/04/14 00:08:20;;;;;;;12.90;7.65;;;;;;;;;;4974766;28;20493;-69
2022/04/14 00:10:45;;;;;;;11.52;7.38;;;;;;;;;;4974537;28;20026;-69
2022/04/14 00:13:10;;;;;;;13.93;8.07;;;;;;;;;;4974632;28;20019;-69
2022/04/14 00:15:36;;;;;;;10.50;7.47;;;;;;;;;;4974714;28;20081;-69
2022/04/14 00:18:01;;;;;;;12.88;7.82;;;;;;;;;;4977969;28;20023;-69
2022/04/14 00:20:27;;;;;;;11.73;7.90;;;;;;;;;;4978376;28;20031;-69
2022/04/14 00:22:52;;;;;;;10.55;7.38;;;;;;;;;;4978428;28;20475;-70
2022/04/14 00:25:17;;;;;;;10.35;8.07;;;;;;;;;;4978244;28;20057;-70
2022/04/14 00:27:43;;;;;;;11.73;7.93;;;;;;;;;;4978243;28;20123;-70
2022/04/14 00:30:10;;;;;;;11.57;7.78;;;;;;;;;;4978118;28;20469;-70
2022/04/14 00:32:35;;;;;;;14.25;8.50;;;;;;;;;;4977936;28;20382;-70
2022/04/14 00:35:01;;;;;;;12.57;8.20;;;;;;;;;;4977890;28;20034;-70
2022/04/14 00:37:27;;;;;;;12.70;8.27;;;;;;;;;;4978123;28;20031;-71
2022/04/14 00:39:52;;;;;;;13.63;8.18;;;;;;;;;;4977980;28;20023;-72
2022/04/14 00:42:17;;;;;;;10.57;7.97;;;;;;;;;;4977824;28;20047;-70
2022/04/14 00:44:43;;;;;;;10.18;7.05;;;;;;;;;;4977943;28;20035;-71
2022/04/14 00:47:10;;;;;;;11.20;8.38;;;;;;;;;;4977822;28;20035;-71
2022/04/14 00:49:35;;;;;;;12.18;7.90;;;;;;;;;;4977942;28;20089;-71
2022/04/14 00:52:01;;;;;;;14.48;8.45;;;;;;;;;;4978014;28;20026;-71
2022/04/14 00:54:28;;;;;;;11.80;8.07;;;;;;;;;;4977969;28;20062;-77
2022/04/14 00:56:55;;;;;;;9.45;7.60;;;;;;;;;;4977677;28;20030;-77
2022/04/14 00:59:21;;;;;;;12.23;7.53;;;;;;;;;;4977979;28;20039;-77
2022/04/14 01:01:47;;;;;;;11.85;7.90;;;;;;;;;;4977631;28;20062;-78
2022/04/14 01:04:12;;;;;;;12.32;7.63;;;;;;;;;;4977977;28;20062;-77
2022/04/14 01:06:38;;;;;;;13.02;7.90;;;;;;;;;;4976036;28;20077;-77
2022/04/14 01:09:18;;;;;;;14.05;7.97;;;;;;;;;;4977584;28;20023;-77
2022/04/14 01:11:44;;;;;;;14.68;8.20;;;;;;;;;;4960334;28;20027;-77
2022/04/14 01:14:28;;;;;;;13.45;8.02;;;;;;;;;;4960289;28;20533;-77
2022/04/14 01:16:55;;;;;;;12.60;8.18;;;;;;;;;;4992435;28;20344;-77
2022/04/14 01:19:20;;;;;;;13.13;8.00;;;;;;;;;;4977441;28;20470;-77
2022/04/14 01:21:48;;;;;;;13.32;7.68;;;;;;;;;;4960340;28;20042;-71
2022/04/14 01:24:14;;;;;;;17.23;9.32;;;;;;;;;;4959849;28;20491;-71
2022/04/14 01:26:40;;;;;;;15.25;9.27;;;;;;;;;;4977055;28;20066;-70
2022/04/14 01:29:06;;;;;;;17.02;10.70;;;;;;;;;;4976663;28;20023;-70
2022/04/14 01:31:31;;;;;;;14.73;9.02;;;;;;;;;;4977141;28;20477;-70
2022/04/14 01:33:57;;;;;;;12.75;8.68;;;;;;;;;;4959934;28;20035;-70
2022/04/14 01:36:23;;;;;;;13.27;8.00;;;;;;;;;;4992111;28;20056;-70
2022/04/14 01:38:48;;;;;;;9.93;7.57;;;;;;;;;;4992278;28;20030;-70
2022/04/14 01:41:14;;;;;;;10.45;7.57;;;;;;;;;;4956330;29;20066;-70
2022/04/14 01:43:39;;;;;;;10.48;6.85;;;;;;;;;;4957623;29;20035;-70
2022/04/14 01:46:08;;;;;;;9.07;6.80;;;;;;;;;;4957371;29;20386;-70
2022/04/14 01:48:34;;;;;;;14.20;7.45;;;;;;;;;;4957708;28;20051;-69
2022/04/14 01:50:59;;;;;;;12.40;7.13;;;;;;;;;;4957429;29;20027;-70
2022/04/14 01:53:24;;;;;;;13.07;7.22;;;;;;;;;;4957309;29;20059;-70
2022/04/14 01:55:50;;;;;;;11.18;6.82;;;;;;;;;;4957322;28;20047;-71
2022/04/14 01:58:15;;;;;;;12.38;7.55;;;;;;;;;;4972048;28;20034;-70
2022/04/14 02:00:41;;;;;;;11.63;6.78;;;;;;;;;;4957357;29;20503;-70
2022/04/14 02:03:06;;;;;;;12.13;8.57;;;;;;;;;;4957469;29;20028;-70
2022/04/14 02:05:32;;;;;;;14.10;8.73;;;;;;;;;;4971817;28;20063;-70
2022/04/14 02:07:57;;;;;;;12.05;8.23;;;;;;;;;;4956978;29;20526;-71
2022/04/14 02:10:22;;;;;;;11.07;7.90;;;;;;;;;;4956786;29;20438;-73
2022/04/14 02:12:48;;;;;;;12.15;9.15;;;;;;;;;;4956987;28;20054;-74
2022/04/14 02:15:14;;;;;;;17.05;9.57;;;;;;;;;;4957017;28;20114;-76
2022/04/14 02:17:39;;;;;;;12.98;8.85;;;;;;;;;;4956917;29;20019;-75
2022/04/14 02:20:05;;;;;;;12.20;8.20;;;;;;;;;;4957172;29;20117;-75
2022/04/14 02:22:36;;;;;;;15.02;7.65;;;;;;;;;;4956900;29;20031;-75
2022/04/14 02:25:02;;;;;;;12.10;7.75;;;;;;;;;;4956872;28;20023;-75
2022/04/14 02:27:27;;;;;;;11.32;7.97;;;;;;;;;;4956576;29;20023;-69
2022/04/14 02:29:52;;;;;;;11.88;7.30;;;;;;;;;;4956909;29;20031;-70
2022/04/14 02:32:18;;;;;;;13.38;7.68;;;;;;;;;;4956375;29;20019;-73
2022/04/14 02:34:43;;;;;;;11.15;7.28;;;;;;;;;;4956430;29;20031;-73
2022/04/14 02:37:08;;;;;;;12.30;7.13;;;;;;;;;;4971595;28;20030;-69
2022/04/14 02:39:34;;;;;;;12.02;8.57;;;;;;;;;;4955752;28;20035;-69
2022/04/14 02:41:59;;;;;;;9.35;7.13;;;;;;;;;;4972430;28;20082;-69
2022/04/14 02:44:25;;;;;;;9.23;6.93;;;;;;;;;;4975756;28;20060;-69
2022/04/14 02:46:50;;;;;;;14.32;7.20;;;;;;;;;;4958363;28;20027;-69
2022/04/14 02:49:16;;;;;;;12.23;7.47;;;;;;;;;;4990706;28;20085;-70
2022/04/14 02:51:41;;;;;;;10.23;7.90;;;;;;;;;;4975875;28;20014;-71
2022/04/14 02:54:06;;;;;;;10.90;7.53;;;;;;;;;;4958276;28;20031;-74
2022/04/14 02:56:32;;;;;;;13.67;8.27;;;;;;;;;;4975343;28;20023;-74
2022/04/14 02:58:58;;;;;;;16.15;8.40;;;;;;;;;;4958400;28;20365;-74
2022/04/14 03:01:23;;;;;;;11.77;8.25;;;;;;;;;;4975707;28;20058;-72
2022/04/14 03:03:48;;;;;;;10.38;7.35;;;;;;;;;;4975616;28;20038;-72
2022/04/14 03:06:14;;;;;;;11.75;8.10;;;;;;;;;;4958465;28;20027;-72
2022/04/14 03:08:39;;;;;;;13.05;8.27;;;;;;;;;;4975428;28;20030;-75
2022/04/14 03:11:05;;;;;;;11.75;7.80;;;;;;;;;;4975562;28;20443;-74
2022/04/14 03:13:31;;;;;;;12.77;8.23;;;;;;;;;;4975100;28;20045;-75
2022/04/14 03:15:56;;;;;;;12.57;8.00;;;;;;;;;;4990163;28;20027;-74
2022/04/14 03:18:22;;;;;;;14.57;8.88;;;;;;;;;;4975488;28;20035;-74
2022/04/14 03:20:47;;;;;;;12.98;8.38;;;;;;;;;;4975430;28;20081;-75
2022/04/14 03:23:13;;;;;;;16.35;8.68;;;;;;;;;;4975231;28;20023;-74
2022/04/14 03:25:38;;;;;;;15.68;8.20;;;;;;;;;;4975148;28;20065;-74
2022/04/14 03:28:04;;;;;;;13.75;8.07;;;;;;;;;;4975344;28;20038;-74
2022/04/14 03:30:29;;;;;;;13.18;7.80;;;;;;;;;;4957838;28;20419;-75
2022/04/14 03:32:55;;;;;;;13.13;8.07;;;;;;;;;;4975204;28;20026;-71
2022/04/14 03:35:20;;;;;;;13.57;7.65;;;;;;;;;;4975321;28;20018;-76
2022/04/14 03:37:45;;;;;;;13.50;8.13;;;;;;;;;;4974871;28;20031;-76
2022/04/14 03:40:11;;;;;;;14.95;8.38;;;;;;;;;;4974969;28;20027;-70
2022/04/14 03:42:37;;;;;;;33.88;9.88;;;;;;;;;;4957890;28;20046;-70
2022/04/14 03:45:03;;;;;;;21.08;9.75;;;;;;;;;;4975055;28;20023;-70
2022/04/14 03:47:28;;;;;;;12.63;7.40;;;;;;;;;;4957706;28;20039;-70
2022/04/14 03:49:55;;;;;;;15.45;8.63;;;;;;;;;;4974778;28;20360;-70
2022/04/14 03:52:20;;;;;;;11.98;8.07;;;;;;;;;;4978740;28;20474;-73
2022/04/14 03:54:45;;;;;;;13.07;7.90;;;;;;;;;;4978805;28;20030;-73
2022/04/14 03:57:11;;;;;;;12.35;8.07;;;;;;;;;;4994026;28;20114;-73
2022/04/14 03:59:37;;;;;;;13.35;8.40;;;;;;;;;;4978926;28;20029;-73
2022/04/14 04:02:03;;;;;;;14.70;8.63;;;;;;;;;;4978800;28;20023;-74
2022/04/14 04:04:28;;;;;;;14.18;7.97;;;;;;;;;;4977867;28;20034;-74
2022/04/14 04:06:53;;;;;;;36.78;18.42;;;;;;;;;;4977952;28;20031;-74
2022/04/14 04:09:19;;;;;;;18.88;11.05;;;;;;;;;;4977990;28;20367;-74
2022/04/14 04:11:46;;;;;;;21.45;11.50;;;;;;;;;;4978037;28;20029;-75
2022/04/14 04:14:11;;;;;;;18.17;11.60;;;;;;;;;;4978272;28;20398;-75
2022/04/14 04:16:37;;;;;;;16.17;9.35;;;;;;;;;;4977734;28;20053;-74
2022/04/14 04:19:02;;;;;;;15.75;8.95;;;;;;;;;;4977803;28;20022;-74
2022/04/14 04:21:29;;;;;;;20.77;11.48;;;;;;;;;;4977614;28;20030;-75
2022/04/14 04:23:55;;;;;;;17.25;10.40;;;;;;;;;;4977730;28;20450;-75
2022/04/14 04:26:20;;;;;;;18.52;8.88;;;;;;;;;;4976547;28;20037;-75
2022/04/14 04:28:45;;;;;;;27.75;13.15;;;;;;;;;;4977120;28;20018;-77
2022/04/14 04:31:11;;;;;;;27.48;13.15;;;;;;;;;;4977090;28;20030;-76
2022/04/14 04:33:36;;;;;;;22.17;11.60;;;;;;;;;;4959626;28;20031;-76
2022/04/14 04:36:02;;;;;;;19.83;11.00;;;;;;;;;;4976867;28;20506;-73
2022/04/14 04:38:27;;;;;;;17.50;10.48;;;;;;;;;;4976081;28;20054;-73
2022/04/14 04:40:55;;;;;;;21.88;12.52;;;;;;;;;;4975201;28;20079;-73
2022/04/14 04:43:20;;;;;;;19.17;11.82;;;;;;;;;;4975244;28;20023;-73
2022/04/14 04:45:45;;;;;;;19.17;11.63;;;;;;;;;;4958517;28;20084;-72
2022/04/14 04:48:11;;;;;;;19.80;10.52;;;;;;;;;;4976022;28;20027;-74
2022/04/14 04:50:36;;;;;;;14.35;8.85;;;;;;;;;;4974766;28;20054;-73
2022/04/14 04:53:02;;;;;;;23.92;11.98;;;;;;;;;;4975921;28;20030;-75
2022/04/14 04:55:27;;;;;;;23.42;13.52;;;;;;;;;;4977340;28;20018;-74
2022/04/14 04:57:52;;;;;;;31.20;17.42;;;;;;;;;;4977217;28;20030;-74
2022/04/14 05:00:18;;;;;;;37.63;18.80;;;;;;;;;;4976956;28;20359;-74
2022/04/14 05:02:43;;;;;;;26.30;13.57;;;;;;;;;;4975846;28;20035;-74
2022/04/14 05:05:08;;;;;;;38.42;18.50;;;;;;;;;;4958770;28;20054;-74
2022/04/14 05:07:34;;;;;;;50.28;23.08;;;;;;;;;;4976181;28;20026;-74
2022/04/14 05:09:59;;;;;;;25.45;13.60;;;;;;;;;;4976170;28;20019;-72
2022/04/14 05:12:25;;;;;;;35.28;16.80;;;;;;;;;;4958946;28;20030;-74
2022/04/14 05:14:50;;;;;;;45.78;21.70;;;;;;;;;;4976048;28;20027;-74
2022/04/14 05:17:15;;;;;;;34.88;19.10;;;;;;;;;;4976016;28;20034;-73
2022/04/14 05:19:40;;;;;;;24.70;13.57;;;;;;;;;;4958748;28;20034;-73
2022/04/14 05:22:06;;;;;;;16.63;11.35;;;;;;;;;;4975946;28;20109;-73
2022/04/14 05:24:31;;;;;;;14.95;9.27;;;;;;;;;;4975849;28;20110;-74
2022/04/14 05:26:57;;;;;;;17.52;8.95;;;;;;;;;;4975735;28;20039;-73
2022/04/14 05:29:22;;;;;;;17.10;8.68;;;;;;;;;;4975720;28;20033;-74
2022/04/14 05:31:48;;;;;;;14.85;7.40;;;;;;;;;;4975715;28;20027;-73
2022/04/14 05:34:13;;;;;;;13.43;7.88;;;;;;;;;;4974439;28;20386;-74
2022/04/14 05:36:38;;;;;;;11.95;7.10;;;;;;;;;;4975634;28;20039;-73
2022/04/14 05:39:04;;;;;;;11.13;6.93;;;;;;;;;;4990674;28;20065;-74
2022/04/14 05:41:29;;;;;;;14.27;8.27;;;;;;;;;;4958061;28;20058;-73
2022/04/14 05:43:56;;;;;;;13.70;8.95;;;;;;;;;;4975525;28;20109;-76
2022/04/14 05:46:22;;;;;;;16.77;9.27;;;;;;;;;;4975372;28;20482;-76
2022/04/14 05:48:48;;;;;;;13.55;8.02;;;;;;;;;;4958159;28;20054;-76
2022/04/14 05:51:14;;;;;;;14.32;9.45;;;;;;;;;;4958174;28;20032;-76
2022/04/14 05:53:39;;;;;;;16.67;9.25;;;;;;;;;;4975358;28;20466;-76
2022/04/14 05:56:04;;;;;;;15.82;9.55;;;;;;;;;;4975266;28;20537;-76
2022/04/14 05:58:30;;;;;;;15.73;9.57;;;;;;;;;;4975275;28;20023;-76
2022/04/14 06:00:55;;;;;;;23.33;10.85;;;;;;;;;;4975145;28;20023;-76
2022/04/14 06:03:20;;;;;;;24.67;12.45;;;;;;;;;;4975099;28;20466;-76
2022/04/14 06:05:46;;;;;;;20.73;10.07;;;;;;;;;;4975050;28;20518;-80
2022/04/14 06:08:11;;;;;;;21.92;10.88;;;;;;;;;;4958873;28;20051;-77
2022/04/14 06:10:36;;;;;;;14.48;9.00;;;;;;;;;;4976332;28;20026;-77
2022/04/14 06:13:03;;;;;;;11.02;8.05;;;;;;;;;;4975944;28;20524;-77
2022/04/14 06:15:30;;;;;;;17.35;9.70;;;;;;;;;;4975803;28;20088;-77
2022/04/14 06:17:56;;;;;;;18.20;10.40;;;;;;;;;;4976468;28;20413;-77
2022/04/14 06:20:22;;;;;;;14.88;8.85;;;;;;;;;;4976093;28;20374;-77
2022/04/14 06:22:47;;;;;;;14.30;9.10;;;;;;;;;;4975800;28;20023;-77
2022/04/14 06:25:13;;;;;;;15.40;9.35;;;;;;;;;;4991195;28;20058;-77
2022/04/14 06:27:48;;;;;;;15.20;8.98;;;;;;;;;;4975727;28;20019;-77
2022/04/14 06:30:14;;;;;;;14.50;7.93;;;;;;;;;;4942404;28;20042;-77
2022/04/14 06:32:40;;;;;;;12.30;7.43;;;;;;;;;;4975574;28;20022;-77
2022/04/14 06:35:08;;;;;;;12.32;7.78;;;;;;;;;;4975591;28;20031;-77
2022/04/14 06:37:34;;;;;;;13.93;7.90;;;;;;;;;;4975828;28;20027;-77
2022/04/14 06:40:00;;;;;;;12.07;8.02;;;;;;;;;;4975524;28;20043;-76
2022/04/14 06:42:25;;;;;;;14.32;8.55;;;;;;;;;;4975751;28;20035;-77
2022/04/14 06:44:51;;;;;;;12.30;8.52;;;;;;;;;;4975945;28;20051;-77
2022/04/14 06:47:16;;;;;;;13.85;7.47;;;;;;;;;;4975631;28;20029;-77
2022/04/14 06:49:41;;;;;;;14.77;8.85;;;;;;;;;;4975848;28;20038;-77
2022/04/14 06:52:07;;;;;;;13.05;7.93;;;;;;;;;;4990564;28;20054;-77
2022/04/14 06:54:33;;;;;;;13.13;8.30;;;;;;;;;;4975248;28;20031;-77
2022/04/14 06:56:58;;;;;;;17.33;8.50;;;;;;;;;;4975462;28;20529;-77
2022/04/14 06:59:24;;;;;;;13.48;8.27;;;;;;;;;;4975189;28;20045;-77
2022/04/14 07:01:49;;;;;;;15.55;8.48;;;;;;;;;;4990142;28;20023;-77
2022/04/14 07:04:14;;;;;;;20.65;11.40;;;;;;;;;;4957772;28;20039;-77
2022/04/14 07:06:39;;;;;;;22.45;12.35;;;;;;;;;;4974982;28;20030;-77
2022/04/14 07:09:06;;;;;;;29.05;13.93;;;;;;;;;;4957875;28;20394;-77
2022/04/14 07:11:31;;;;;;;16.88;9.27;;;;;;;;;;4975085;28;20019;-77
2022/04/14 07:13:58;;;;;;;15.80;9.95;;;;;;;;;;4975289;28;20031;-77
2022/04/14 07:16:25;;;;;;;15.13;9.15;;;;;;;;;;4975298;28;20023;-77
2022/04/14 07:18:50;;;;;;;16.30;9.88;;;;;;;;;;4975205;28;20562;-77
2022/04/14 07:21:15;;;;;;;14.68;8.50;;;;;;;;;;4974931;28;20101;-77
2022/04/14 07:23:41;;;;;;;11.70;6.45;;;;;;;;;;4974886;28;20038;-77
2022/04/14 07:26:06;;;;;;;10.32;6.38;;;;;;;;;;4957389;28;20576;-77
2022/04/14 07:28:31;;;;;;;9.75;6.80;;;;;;;;;;4974824;28;20031;-77
2022/04/14 07:30:58;;;;;;;9.77;6.93;;;;;;;;;;4974801;28;20027;-77
2022/04/14 07:33:23;;;;;;;11.35;7.43;;;;;;;;;;4975042;28;20090;-76
2022/04/14 07:35:50;;;;;;;11.65;7.03;;;;;;;;;;4975016;28;20030;-77
2022/04/14 07:38:16;;;;;;;8.82;6.13;;;;;;;;;;4974746;28;20471;-76
2022/04/14 07:40:41;;;;;;;10.48;5.90;;;;;;;;;;4989618;28;20054;-77
2022/04/14 07:43:06;;;;;;;10.65;5.10;;;;;;;;;;4957387;28;20031;-77
2022/04/14 07:45:32;;;;;;;11.57;7.40;;;;;;;;;;4974579;28;20042;-77
2022/04/14 07:47:58;;;;;;;8.80;6.13;;;;;;;;;;4974910;28;20118;-77
2022/04/14 07:50:24;;;;;;;11.10;6.30;;;;;;;;;;4974926;28;20118;-77
2022/04/14 07:52:50;;;;;;;9.57;6.20;;;;;;;;;;4957772;28;20382;-77
2022/04/14 07:55:23;;;;;;;9.82;5.22;;;;;;;;;;4974615;28;20053;-77
2022/04/14 07:57:50;;;;;;;12.43;6.90;;;;;;;;;;4975103;28;20037;-76
2022/04/14 08:00:15;;;;;;;9.85;5.18;;;;;;;;;;4974364;28;20023;-76
2022/04/14 08:02:53;;;;;;;7.47;4.97;;;;;;;;;;4974789;28;20031;-76
2022/04/14 08:05:20;;;;;;;10.32;5.72;;;;;;;;;;4974398;28;20039;-76
2022/04/14 08:07:45;;;;;;;13.35;5.90;;;;;;;;;;4956385;28;20027;-76
2022/04/14 08:10:11;;;;;;;10.77;5.78;;;;;;;;;;4988395;28;20037;-77
2022/04/14 08:12:36;;;;;;;8.40;5.95;;;;;;;;;;4973451;28;20033;-76
2022/04/14 08:15:02;;;;;;;9.98;6.05;;;;;;;;;;4972037;28;20082;-76
2022/04/14 08:17:27;;;;;;;11.63;6.00;;;;;;;;;;4973349;28;20050;-77
2022/04/14 08:19:52;;;;;;;10.07;5.15;;;;;;;;;;4973324;28;20041;-77
2022/04/14 08:22:18;;;;;;;14.00;6.30;;;;;;;;;;4973310;28;20111;-76
2022/04/14 08:24:47;;;;;;;7.18;5.07;;;;;;;;;;4973267;28;20023;-76
2022/04/14 08:27:13;;;;;;;10.02;5.38;;;;;;;;;;4973233;28;20050;-76
2022/04/14 08:29:38;;;;;;;7.05;4.60;;;;;;;;;;4973503;28;20110;-77
2022/04/14 08:32:06;;;;;;;7.13;4.53;;;;;;;;;;4973220;28;20485;-76
2022/04/14 08:34:32;;;;;;;6.97;4.80;;;;;;;;;;4973167;28;20489;-77
2022/04/14 08:36:57;;;;;;;6.93;4.05;;;;;;;;;;4973202;28;20039;-77
2022/04/14 08:39:22;;;;;;;6.63;4.63;;;;;;;;;;4976664;28;20031;-77
2022/04/14 08:41:52;;;;;;;7.60;3.88;;;;;;;;;;4975880;28;20043;-76
2022/04/14 08:44:21;;;;;;;5.18;3.47;;;;;;;;;;4959251;28;20054;-76
2022/04/14 08:46:46;;;;;;;6.40;3.67;;;;;;;;;;4976470;28;20030;-76
2022/04/14 08:49:12;;;;;;;6.55;3.72;;;;;;;;;;4959222;28;20070;-76
2022/04/14 08:51:38;;;;;;;5.10;3.35;;;;;;;;;;4976443;28;20023;-73
2022/04/14 08:54:05;;;;;;;5.13;3.55;;;;;;;;;;4976463;28;20526;-73
2022/04/14 08:56:30;;;;;;;3.20;2.75;;;;;;;;;;4976396;28;20066;-73
2022/04/14 08:58:56;;;;;;;6.20;3.85;;;;;;;;;;4976333;28;20062;-72
2022/04/14 09:01:25;;;;;;;7.38;3.45;;;;;;;;;;4976518;28;20033;-74
2022/04/14 09:03:55;;;;;;;5.47;4.18;;;;;;;;;;4976242;28;20484;-74
2022/04/14 09:06:21;;;;;;;5.60;3.83;;;;;;;;;;4976232;28;20497;-74
2022/04/14 09:08:48;;;;;;;4.95;4.05;;;;;;;;;;4976251;28;20023;-75
2022/04/14 09:11:13;;;;;;;4.65;4.18;;;;;;;;;;4976138;28;20035;-75
2022/04/14 09:13:43;;;;;;;7.05;4.82;;;;;;;;;;4976099;28;20019;-74
2022/04/14 09:16:09;;;;;;;4.97;3.42;;;;;;;;;;4976068;28;20406;-75
2022/04/14 09:18:34;;;;;;;4.43;3.00;;;;;;;;;;4958809;28;20018;-75
2022/04/14 09:21:04;;;;;;;5.28;3.70;;;;;;;;;;4975872;28;20540;-75
2022/04/14 09:23:29;;;;;;;7.35;4.70;;;;;;;;;;4975895;28;20030;-76
2022/04/14 09:26:04;;;;;;;5.10;3.88;;;;;;;;;;4976660;28;20034;-76
2022/04/14 09:28:30;;;;;;;6.57;3.75;;;;;;;;;;4977298;28;20118;-76
2022/04/14 09:30:58;;;;;;;3.58;2.97;;;;;;;;;;4976858;28;20157;-76
2022/04/14 09:33:23;;;;;;;5.30;4.25;;;;;;;;;;4977041;28;20427;-76
2022/04/14 09:36:07;;;;;;;4.72;3.40;;;;;;;;;;4976753;28;20117;-76
2022/04/14 09:38:50;;;;;;;4.65;3.15;;;;;;;;;;4976941;28;20043;-76
2022/04/14 09:41:39;;;;;;;4.68;3.78;;;;;;;;;;4976614;28;20058;-76
2022/04/14 09:44:09;;;;;;;5.88;3.63;;;;;;;;;;4992142;28;20097;-76
2022/04/14 09:46:52;;;;;;;4.70;3.42;;;;;;;;;;4976719;28;20039;-76
2022/04/14 09:49:18;;;;;;;5.20;3.83;;;;;;;;;;4976090;28;20062;-76
2022/04/14 09:51:44;;;;;;;4.03;3.63;;;;;;;;;;4959651;28;20027;-76
2022/04/14 09:54:14;;;;;;;8.05;4.80;;;;;;;;;;4976341;28;20522;-76
2022/04/14 09:56:39;;;;;;;5.90;3.97;;;;;;;;;;4959408;28;20038;-76
2022/04/14 09:59:08;;;;;;;5.33;4.40;;;;;;;;;;4976314;28;20023;-76
2022/04/14 10:01:34;;;;;;;7.45;5.03;;;;;;;;;;4958659;28;20769;-76
2022/04/14 10:03:59;;;;;;;4.88;3.20;;;;;;;;;;4976472;28;20019;-76
2022/04/14 10:06:25;;;;;;;7.60;3.40;;;;;;;;;;4990712;28;20479;-76
2022/04/14 10:08:51;;;;;;;3.47;3.17;;;;;;;;;;4976391;28;20027;-76
2022/04/14 10:11:23;;;;;;;3.50;3.20;;;;;;;;;;4975631;28;20035;-76
2022/04/14 10:13:49;;;;;;;3.17;2.88;;;;;;;;;;4975892;28;20030;-76
2022/04/14 10:16:15;;;;;;;6.75;3.00;;;;;;;;;;4975942;28;20037;-76
2022/04/14 10:18:40;;;;;;;3.80;3.00;;;;;;;;;;4975904;28;20037;-74
2022/04/14 10:21:06;;;;;;;3.78;2.95;;;;;;;;;;4976009;28;20022;-73
2022/04/14 10:23:32;;;;;;;4.40;3.63;;;;;;;;;;4975796;28;20114;-74
2022/04/14 10:25:58;;;;;;;3.78;2.58;;;;;;;;;;4958319;28;20462;-74
2022/04/14 10:28:25;;;;;;;2.45;2.25;;;;;;;;;;4975684;28;20111;-74
2022/04/14 10:30:57;;;;;;;4.18;3.38;;;;;;;;;;4975640;28;20098;-72
2022/04/14 10:33:23;;;;;;;4.07;3.30;;;;;;;;;;4975722;28;20073;-75
2022/04/14 10:35:49;;;;;;;4.25;3.30;;;;;;;;;;4975503;28;20425;-75
2022/04/14 10:38:32;;;;;;;7.90;3.53;;;;;;;;;;4975516;28;20496;-75
2022/04/14 10:41:15;;;;;;;3.72;2.97;;;;;;;;;;4974716;28;20050;-75
2022/04/14 10:43:41;;;;;;;6.18;2.88;;;;;;;;;;4974926;28;20034;-75
2022/04/14 10:46:07;;;;;;;4.80;3.67;;;;;;;;;;4975019;28;20035;-75
2022/04/14 10:48:33;;;;;;;4.80;3.78;;;;;;;;;;4974898;28;20027;-75
2022/04/14 10:51:17;;;;;;;3.88;2.80;;;;;;;;;;4974879;28;20046;-75
2022/04/14 10:53:50;;;;;;;4.07;2.97;;;;;;;;;;4974885;28;20062;-75
2022/04/14 10:56:34;;;;;;;5.60;3.95;;;;;;;;;;4957925;28;20031;-75
2022/04/14 10:59:00;;;;;;;4.10;3.20;;;;;;;;;;4974890;28;20066;-75
2022/04/14 11:01:44;;;;;;;4.80;2.95;;;;;;;;;;4974021;28;20031;-75
2022/04/14 11:04:22;;;;;;;3.90;2.95;;;;;;;;;;4975048;28;20041;-75
2022/04/14 11:06:48;;;;;;;3.67;3.08;;;;;;;;;;4974442;28;20047;-75
2022/04/14 11:09:32;;;;;;;4.00;2.85;;;;;;;;;;4973554;28;20022;-75
2022/04/14 11:11:59;;;;;;;4.47;3.08;;;;;;;;;;4974679;28;20030;-75
2022/04/14 11:14:24;;;;;;;3.65;3.30;;;;;;;;;;4974616;28;20022;-75
2022/04/14 11:16:50;;;;;;;4.78;2.75;;;;;;;;;;4973794;28;20046;-75
2022/04/14 11:19:18;;;;;;;3.28;2.20;;;;;;;;;;4974691;28;20065;-75
2022/04/14 11:22:02;;;;;;;2.53;2.20;;;;;;;;;;4974521;28;20030;-75
2022/04/14 11:24:37;;;;;;;3.97;3.47;;;;;;;;;;4974494;28;20054;-75
2022/04/14 11:27:09;;;;;;;2.70;2.22;;;;;;;;;;4974759;28;20033;-75
2022/04/14 11:29:35;;;;;;;3.08;2.72;;;;;;;;;;4974602;28;20066;-75
2022/04/14 11:32:00;;;;;;;5.00;2.97;;;;;;;;;;4974182;28;20023;-75
2022/04/14 11:34:30;;;;;;;4.30;3.55;;;;;;;;;;4974161;28;20050;-75
2022/04/14 11:36:56;;;;;;;4.05;3.17;;;;;;;;;;4974485;28;20390;-75
2022/04/14 11:39:23;;;;;;;3.28;2.42;;;;;;;;;;4973275;28;20023;-75
2022/04/14 11:41:50;;;;;;;4.55;2.80;;;;;;;;;;4956587;28;20451;-75
2022/04/14 11:44:20;;;;;;;3.88;2.47;;;;;;;;;;4974267;28;20041;-75
2022/04/14 11:46:46;;;;;;;4.20;2.58;;;;;;;;;;4957033;28;20043;-75
2022/04/14 11:49:18;;;;;;;3.13;2.53;;;;;;;;;;4973853;28;20046;-79
2022/04/14 11:51:50;;;;;;;2.72;2.42;;;;;;;;;;4974256;28;20031;-74
2022/04/14 11:54:20;;;;;;;1.63;1.35;;;;;;;;;;4974122;28;20077;-73
2022/04/14 11:56:49;;;;;;;2.77;2.17;;;;;;;;;;4973728;28;20043;-73
2022/04/14 11:59:17;;;;;;;2.63;2.42;;;;;;;;;;4972330;28;20304;-75
2022/04/14 12:01:50;;;;;;;2.47;2.28;;;;;;;;;;4956723;28;20031;-76
2022/04/14 12:04:16;;;;;;;3.20;2.22;;;;;;;;;;4972299;28;20043;-76
2022/04/14 12:06:51;;;;;;;3.25;2.10;;;;;;;;;;4973319;28;20023;-76
2022/04/14 12:09:20;;;;;;;2.38;2.15;;;;;;;;;;4972866;28;20057;-75
2022/04/14 12:11:45;;;;;;;2.17;1.98;;;;;;;;;;4974458;28;20026;-76
2022/04/14 12:14:13;;;;;;;4.60;2.30;;;;;;;;;;4976966;28;20390;-76
2022/04/14 12:16:45;;;;;;;3.63;2.60;;;;;;;;;;4976548;28;20031;-76
2022/04/14 12:19:11;;;;;;;3.33;2.80;;;;;;;;;;4959072;28;20027;-76
2022/04/14 12:21:36;;;;;;;2.95;2.63;;;;;;;;;;4976954;28;20401;-76
2022/04/14 12:24:03;;;;;;;2.15;2.00;;;;;;;;;;4960641;28;20062;-76
2022/04/14 12:26:28;;;;;;;2.15;1.67;;;;;;;;;;4977947;28;20105;-76
2022/04/14 12:28:54;;;;;;;3.38;2.67;;;;;;;;;;4977559;28;20534;-76
2022/04/14 12:31:20;;;;;;;2.30;2.10;;;;;;;;;;4977381;28;20424;-76
2022/04/14 12:33:59;;;;;;;2.60;1.90;;;;;;;;;;4976865;28;20114;-76
2022/04/14 12:36:37;;;;;;;3.05;2.63;;;;;;;;;;4977410;28;20042;-75
2022/04/14 12:39:04;;;;;;;3.95;3.13;;;;;;;;;;4976921;28;20069;-76
2022/04/14 12:41:34;;;;;;;2.60;2.40;;;;;;;;;;4977105;28;20054;-76
2022/04/14 12:43:59;;;;;;;2.38;2.20;;;;;;;;;;4975775;28;20034;-76
2022/04/14 12:46:38;;;;;;;2.03;1.90;;;;;;;;;;4977035;28;20109;-76
2022/04/14 12:49:04;;;;;;;3.55;1.92;;;;;;;;;;4976734;28;20030;-76
2022/04/14 12:51:31;;;;;;;2.47;1.92;;;;;;;;;;4976896;28;20481;-76
2022/04/14 12:53:57;;;;;;;2.72;2.33;;;;;;;;;;4977050;28;20019;-76
2022/04/14 12:56:22;;;;;;;2.60;2.05;;;;;;;;;;4977031;28;20023;-75
2022/04/14 12:59:10;;;;;;;2.20;2.10;;;;;;;;;;4976933;28;20077;-76
2022/04/14 13:01:49;;;;;;;2.58;2.15;;;;;;;;;;4976938;28;20054;-75
2022/04/14 13:04:15;;;;;;;4.47;2.30;;;;;;;;;;4976723;28;20039;-76
2022/04/14 13:06:41;;;;;;;1.77;1.67;;;;;;;;;;4976572;28;20031;-76
2022/04/14 13:09:13;;;;;;;2.70;1.92;;;;;;;;;;4975694;28;20027;-76
2022/04/14 13:11:40;;;;;;;1.98;1.80;;;;;;;;;;4976400;28;20034;-75
2022/04/14 13:14:17;;;;;;;3.35;2.33;;;;;;;;;;4976383;28;20098;-76
2022/04/14 13:16:44;;;;;;;3.35;2.40;;;;;;;;;;4976602;28;20034;-75
2022/04/14 13:19:09;;;;;;;3.75;3.03;;;;;;;;;;4959274;28;20031;-76
2022/04/14 13:21:35;;;;;;;4.05;2.78;;;;;;;;;;4976541;28;20041;-75
2022/04/14 13:24:00;;;;;;;4.03;2.67;;;;;;;;;;4975506;28;20131;-75
2022/04/14 13:26:26;;;;;;;1.38;1.27;;;;;;;;;;4976282;28;20066;-75
2022/04/14 13:28:51;;;;;;;2.83;2.10;;;;;;;;;;4976040;28;20033;-75
2022/04/14 13:31:17;;;;;;;1.83;1.55;;;;;;;;;;4976264;28;20039;-76
2022/04/14 13:33:42;;;;;;;2.65;1.67;;;;;;;;;;4991274;28;20018;-75
2022/04/14 13:36:07;;;;;;;1.70;1.60;;;;;;;;;;4975671;28;20042;-76
2022/04/14 13:38:32;;;;;;;2.20;2.07;;;;;;;;;;4976386;28;20023;-75
2022/04/14 13:40:58;;;;;;;3.00;2.13;;;;;;;;;;4958546;28;20316;-76
2022/04/14 13:43:24;;;;;;;1.65;1.55;;;;;;;;;;4976090;28;20035;-76
2022/04/14 13:45:49;;;;;;;2.85;2.33;;;;;;;;;;4958718;28;20042;-76
2022/04/14 13:48:15;;;;;;;3.00;2.38;;;;;;;;;;4975569;28;20035;-76
2022/04/14 13:50:43;;;;;;;2.75;2.42;;;;;;;;;;4976127;28;20047;-75
2022/04/14 13:53:10;;;;;;;3.85;2.47;;;;;;;;;;4975642;28;20367;-76
2022/04/14 13:55:37;;;;;;;2.67;2.22;;;;;;;;;;4975638;28;20037;-76
2022/04/14 13:58:05;;;;;;;3.15;2.00;;;;;;;;;;4976031;28;20107;-76
2022/04/14 14:00:30;;;;;;;2.53;2.33;;;;;;;;;;4976093;28;20382;-76
2022/04/14 14:02:56;;;;;;;3.97;3.03;;;;;;;;;;4975428;28;20019;-76
2022/04/14 14:05:21;;;;;;;4.47;3.97;;;;;;;;;;4975420;28;20039;-76
2022/04/14 14:07:47;;;;;;;4.40;3.70;;;;;;;;;;4975519;28;20026;-76
2022/04/14 14:10:12;;;;;;;4.25;2.50;;;;;;;;;;4975358;28;20027;-76
2022/04/14 14:12:39;;;;;;;3.25;2.95;;;;;;;;;;4958063;28;20019;-76
2022/04/14 14:15:07;;;;;;;6.63;3.10;;;;;;;;;;4958165;28;20046;-76
2022/04/14 14:17:38;;;;;;;3.15;2.90;;;;;;;;;;4975534;28;20466;-75
2022/04/14 14:20:03;;;;;;;;;;;;;;;;;;4976024;28;20368;-75
2022/04/14 14:22:29;;;;;;;3.63;3.00;;;;;;;;;;4975392;28;19952;-75
2022/04/14 14:24:54;;;;;;;2.78;2.55;;;;;;;;;;4958029;28;20039;-76
2022/04/14 14:27:20;;;;;;;4.90;3.08;;;;;;;;;;4974923;28;20054;-75
2022/04/14 14:29:45;;;;;;;4.47;2.53;;;;;;;;;;4975344;28;20034;-76
2022/04/14 14:32:10;;;;;;;4.57;3.15;;;;;;;;;;4975447;28;20050;-76
2022/04/14 14:34:36;;;;;;;4.78;3.08;;;;;;;;;;4974675;28;20045;-76